sensor_id;sensor_type;location;lat;lon;timestamp;P1;durP1;ratioP1;P2;durP2;ratioP2
32639;SDS011;19049;52.524;11.468;2023-10-19T00:00:45;9.97;;;8.03;;
32639;SDS011;19049;52.524;11.468;2023-10-19T00:03:14;13.07;;;8.03;;
32639;SDS011;19049;52.524;11.468;2023-10-19T00:05:40;12.90;;;7.43;;
32639;SDS011;19049;52.524;11.468;2023-10-19T00:08:12;10.27;;;7.10;;
32639;SDS011;19049;52.524;11.468;2023-10-19T00:10:39;10.10;;;7.53;;
32639;SDS011;19049;52.524;11.468;2023-10-19T00:13:08;8.73;;;7.07;;
32639;SDS011;19049;52.524;11.468;2023-10-19T00:15:36;10.40;;;7.30;;
32639;SDS011;19049;52.524;11.468;2023-10-19T00:18:12;9.50;;;7.10;;
32639;SDS011;19049;52.524;11.468;2023-10-19T00:20:45;8.60;;;6.73;;
32639;SDS011;19049;52.524;11.468;2023-10-19T00:23:16;11.23;;;7.90;;
32639;SDS011;19049;52.524;11.468;2023-10-19T00:25:46;12.27;;;8.23;;
32639;SDS011;19049;52.524;11.468;2023-10-19T00:28:16;11.40;;;8.17;;
32639;SDS011;19049;52.524;11.468;2023-10-19T00:30:43;14.83;;;7.60;;
32639;SDS011;19049;52.524;11.468;2023-10-19T00:33:10;11.00;;;7.47;;
32639;SDS011;19049;52.524;11.468;2023-10-19T00:35:49;11.87;;;7.83;;
32639;SDS011;19049;52.524;11.468;2023-10-19T00:38:26;10.93;;;8.07;;
32639;SDS011;19049;52.524;11.468;2023-10-19T00:40:52;11.27;;;8.50;;
32639;SDS011;19049;52.524;11.468;2023-10-19T00:43:29;10.23;;;7.33;;
32639;SDS011;19049;52.524;11.468;2023-10-19T00:45:59;13.13;;;8.00;;
32639;SDS011;19049;52.524;11.468;2023-10-19T00:48:33;9.73;;;7.50;;
32639;SDS011;19049;52.524;11.468;2023-10-19T00:51:00;9.47;;;7.27;;
32639;SDS011;19049;52.524;11.468;2023-10-19T00:53:36;9.17;;;6.60;;
32639;SDS011;19049;52.524;11.468;2023-10-19T00:56:04;11.00;;;7.30;;
32639;SDS011;19049;52.524;11.468;2023-10-19T00:58:34;8.37;;;7.00;;
32639;SDS011;19049;52.524;11.468;2023-10-19T01:01:04;12.33;;;7.67;;
32639;SDS011;19049;52.524;11.468;2023-10-19T01:03:31;10.87;;;7.10;;
32639;SDS011;19049;52.524;11.468;2023-10-19T01:06:00;10.60;;;8.13;;
32639;SDS011;19049;52.524;11.468;2023-10-19T01:08:30;9.33;;;7.47;;
32639;SDS011;19049;52.524;11.468;2023-10-19T01:11:04;10.03;;;7.23;;
32639;SDS011;19049;52.524;11.468;2023-10-19T01:13:30;12.97;;;7.83;;
32639;SDS011;19049;52.524;11.468;2023-10-19T01:15:59;11.77;;;8.37;;
32639;SDS011;19049;52.524;11.468;2023-10-19T01:18:25;11.30;;;7.77;;
32639;SDS011;19049;52.524;11.468;2023-10-19T01:20:57;9.70;;;7.67;;
32639;SDS011;19049;52.524;11.468;2023-10-19T01:23:32;10.90;;;8.20;;
32639;SDS011;19049;52.524;11.468;2023-10-19T01:26:00;10.17;;;8.30;;
32639;SDS011;19049;52.524;11.468;2023-10-19T01:28:36;11.43;;;8.77;;
32639;SDS011;19049;52.524;11.468;2023-10-19T01:31:05;12.53;;;8.33;;
32639;SDS011;19049;52.524;11.468;2023-10-19T01:33:32;12.80;;;8.07;;
32639;SDS011;19049;52.524;11.468;2023-10-19T01:36:01;12.57;;;7.97;;
32639;SDS011;19049;52.524;11.468;2023-10-19T01:38:36;11.77;;;8.53;;
32639;SDS011;19049;52.524;11.468;2023-10-19T01:41:02;10.10;;;8.13;;
32639;SDS011;19049;52.524;11.468;2023-10-19T01:43:45;11.13;;;8.27;;
32639;SDS011;19049;52.524;11.468;2023-10-19T01:46:14;11.50;;;8.57;;
32639;SDS011;19049;52.524;11.468;2023-10-19T01:48:51;9.80;;;7.50;;
32639;SDS011;19049;52.524;11.468;2023-10-19T01:51:24;10.67;;;8.20;;
32639;SDS011;19049;52.524;11.468;2023-10-19T01:53:51;14.87;;;8.57;;
32639;SDS011;19049;52.524;11.468;2023-10-19T01:56:18;9.07;;;6.80;;
32639;SDS011;19049;52.524;11.468;2023-10-19T01:58:46;11.20;;;7.77;;
32639;SDS011;19049;52.524;11.468;2023-10-19T02:01:13;11.17;;;7.30;;
32639;SDS011;19049;52.524;11.468;2023-10-19T02:03:46;11.80;;;7.83;;
32639;SDS011;19049;52.524;11.468;2023-10-19T02:06:14;10.87;;;8.17;;
32639;SDS011;19049;52.524;11.468;2023-10-19T02:09:05;11.30;;;7.47;;
32639;SDS011;19049;52.524;11.468;2023-10-19T02:11:43;9.40;;;7.03;;
32639;SDS011;19049;52.524;11.468;2023-10-19T02:14:11;10.03;;;7.13;;
32639;SDS011;19049;52.524;11.468;2023-10-19T02:16:43;11.27;;;7.80;;
32639;SDS011;19049;52.524;11.468;2023-10-19T02:19:12;11.53;;;7.97;;
32639;SDS011;19049;52.524;11.468;2023-10-19T02:21:38;11.93;;;7.53;;
32639;SDS011;19049;52.524;11.468;2023-10-19T02:24:07;9.60;;;7.33;;
32639;SDS011;19049;52.524;11.468;2023-10-19T02:26:34;12.07;;;7.93;;
32639;SDS011;19049;52.524;11.468;2023-10-19T02:29:02;10.67;;;6.90;;
32639;SDS011;19049;52.524;11.468;2023-10-19T02:31:33;10.50;;;6.97;;
32639;SDS011;19049;52.524;11.468;2023-10-19T02:33:59;11.23;;;7.33;;
32639;SDS011;19049;52.524;11.468;2023-10-19T02:36:29;9.77;;;7.37;;
32639;SDS011;19049;52.524;11.468;2023-10-19T02:38:56;9.67;;;6.77;;
32639;SDS011;19049;52.524;11.468;2023-10-19T02:41:26;10.10;;;7.00;;
32639;SDS011;19049;52.524;11.468;2023-10-19T02:43:52;10.27;;;6.43;;
32639;SDS011;19049;52.524;11.468;2023-10-19T02:46:38;9.33;;;7.20;;
32639;SDS011;19049;52.524;11.468;2023-10-19T02:49:05;10.47;;;6.70;;
32639;SDS011;19049;52.524;11.468;2023-10-19T02:51:51;10.67;;;7.27;;
32639;SDS011;19049;52.524;11.468;2023-10-19T02:54:19;10.37;;;7.00;;
32639;SDS011;19049;52.524;11.468;2023-10-19T02:56:56;9.60;;;7.03;;
32639;SDS011;19049;52.524;11.468;2023-10-19T02:59:24;9.60;;;6.43;;
32639;SDS011;19049;52.524;11.468;2023-10-19T03:01:54;13.63;;;7.30;;
32639;SDS011;19049;52.524;11.468;2023-10-19T03:04:36;10.57;;;7.23;;
32639;SDS011;19049;52.524;11.468;2023-10-19T03:07:05;10.90;;;6.83;;
32639;SDS011;19049;52.524;11.468;2023-10-19T03:09:32;9.33;;;7.33;;
32639;SDS011;19049;52.524;11.468;2023-10-19T03:12:01;9.40;;;6.10;;
32639;SDS011;19049;52.524;11.468;2023-10-19T03:14:29;10.70;;;6.70;;
32639;SDS011;19049;52.524;11.468;2023-10-19T03:16:54;9.40;;;6.67;;
32639;SDS011;19049;52.524;11.468;2023-10-19T03:19:21;8.43;;;6.90;;
32639;SDS011;19049;52.524;11.468;2023-10-19T03:21:46;10.00;;;7.00;;
32639;SDS011;19049;52.524;11.468;2023-10-19T03:24:16;8.30;;;6.03;;
32639;SDS011;19049;52.524;11.468;2023-10-19T03:27:01;12.00;;;8.30;;
32639;SDS011;19049;52.524;11.468;2023-10-19T03:29:49;11.07;;;7.67;;
32639;SDS011;19049;52.524;11.468;2023-10-19T03:32:20;10.57;;;7.77;;
32639;SDS011;19049;52.524;11.468;2023-10-19T03:34:53;9.73;;;7.30;;
32639;SDS011;19049;52.524;11.468;2023-10-19T03:37:25;10.63;;;8.00;;
32639;SDS011;19049;52.524;11.468;2023-10-19T03:39:54;10.93;;;7.63;;
32639;SDS011;19049;52.524;11.468;2023-10-19T03:42:23;10.53;;;7.50;;
32639;SDS011;19049;52.524;11.468;2023-10-19T03:44:57;11.47;;;8.07;;
32639;SDS011;19049;52.524;11.468;2023-10-19T03:47:24;13.63;;;9.47;;
32639;SDS011;19049;52.524;11.468;2023-10-19T03:49:52;11.67;;;7.90;;
32639;SDS011;19049;52.524;11.468;2023-10-19T03:52:18;11.13;;;7.80;;
32639;SDS011;19049;52.524;11.468;2023-10-19T03:54:44;12.10;;;7.77;;
32639;SDS011;19049;52.524;11.468;2023-10-19T03:57:13;9.70;;;7.73;;
32639;SDS011;19049;52.524;11.468;2023-10-19T03:59:48;14.77;;;9.47;;
32639;SDS011;19049;52.524;11.468;2023-10-19T04:02:24;13.00;;;8.33;;
32639;SDS011;19049;52.524;11.468;2023-10-19T04:04:53;8.87;;;7.07;;
32639;SDS011;19049;52.524;11.468;2023-10-19T04:07:20;12.13;;;6.90;;
32639;SDS011;19049;52.524;11.468;2023-10-19T04:09:47;11.37;;;7.50;;
32639;SDS011;19049;52.524;11.468;2023-10-19T04:12:37;13.63;;;8.87;;
32639;SDS011;19049;52.524;11.468;2023-10-19T04:15:07;10.60;;;8.27;;
32639;SDS011;19049;52.524;11.468;2023-10-19T04:17:46;11.17;;;7.67;;
32639;SDS011;19049;52.524;11.468;2023-10-19T04:20:17;12.63;;;7.60;;
32639;SDS011;19049;52.524;11.468;2023-10-19T04:22:47;10.40;;;7.07;;
32639;SDS011;19049;52.524;11.468;2023-10-19T04:25:18;10.37;;;7.70;;
32639;SDS011;19049;52.524;11.468;2023-10-19T04:27:45;12.43;;;7.63;;
32639;SDS011;19049;52.524;11.468;2023-10-19T04:30:12;15.30;;;9.27;;
32639;SDS011;19049;52.524;11.468;2023-10-19T04:32:41;12.93;;;9.40;;
32639;SDS011;19049;52.524;11.468;2023-10-19T04:35:08;14.90;;;9.27;;
32639;SDS011;19049;52.524;11.468;2023-10-19T04:37:35;17.57;;;9.33;;
32639;SDS011;19049;52.524;11.468;2023-10-19T04:40:01;12.27;;;9.10;;
32639;SDS011;19049;52.524;11.468;2023-10-19T04:42:27;10.47;;;8.07;;
32639;SDS011;19049;52.524;11.468;2023-10-19T04:44:56;11.37;;;8.40;;
32639;SDS011;19049;52.524;11.468;2023-10-19T04:47:22;12.80;;;9.27;;
32639;SDS011;19049;52.524;11.468;2023-10-19T04:49:48;11.80;;;8.37;;
32639;SDS011;19049;52.524;11.468;2023-10-19T04:52:14;12.57;;;9.13;;
32639;SDS011;19049;52.524;11.468;2023-10-19T04:54:40;11.57;;;8.33;;
32639;SDS011;19049;52.524;11.468;2023-10-19T04:57:07;13.47;;;8.90;;
32639;SDS011;19049;52.524;11.468;2023-10-19T04:59:33;13.10;;;9.57;;
32639;SDS011;19049;52.524;11.468;2023-10-19T05:01:59;12.67;;;8.73;;
32639;SDS011;19049;52.524;11.468;2023-10-19T05:04:27;12.57;;;9.00;;
32639;SDS011;19049;52.524;11.468;2023-10-19T05:06:53;12.33;;;9.40;;
32639;SDS011;19049;52.524;11.468;2023-10-19T05:09:20;13.37;;;9.10;;
32639;SDS011;19049;52.524;11.468;2023-10-19T05:11:46;10.37;;;8.33;;
32639;SDS011;19049;52.524;11.468;2023-10-19T05:14:13;11.50;;;8.10;;
32639;SDS011;19049;52.524;11.468;2023-10-19T05:16:39;12.00;;;8.40;;
32639;SDS011;19049;52.524;11.468;2023-10-19T05:19:05;11.53;;;8.07;;
32639;SDS011;19049;52.524;11.468;2023-10-19T05:21:31;13.50;;;9.57;;
32639;SDS011;19049;52.524;11.468;2023-10-19T05:23:59;13.27;;;8.77;;
32639;SDS011;19049;52.524;11.468;2023-10-19T05:26:27;11.47;;;8.23;;
32639;SDS011;19049;52.524;11.468;2023-10-19T05:28:53;15.60;;;7.93;;
32639;SDS011;19049;52.524;11.468;2023-10-19T05:31:20;10.60;;;8.10;;
32639;SDS011;19049;52.524;11.468;2023-10-19T05:33:46;12.70;;;8.83;;
32639;SDS011;19049;52.524;11.468;2023-10-19T05:36:15;13.73;;;8.77;;
32639;SDS011;19049;52.524;11.468;2023-10-19T05:38:42;10.93;;;8.20;;
32639;SDS011;19049;52.524;11.468;2023-10-19T05:41:08;13.37;;;9.30;;
32639;SDS011;19049;52.524;11.468;2023-10-19T05:43:35;10.43;;;7.43;;
32639;SDS011;19049;52.524;11.468;2023-10-19T05:46:02;13.10;;;8.63;;
32639;SDS011;19049;52.524;11.468;2023-10-19T05:48:28;12.60;;;9.33;;
32639;SDS011;19049;52.524;11.468;2023-10-19T05:50:54;14.53;;;9.17;;
32639;SDS011;19049;52.524;11.468;2023-10-19T05:53:20;14.40;;;9.60;;
32639;SDS011;19049;52.524;11.468;2023-10-19T05:55:47;17.13;;;10.80;;
32639;SDS011;19049;52.524;11.468;2023-10-19T05:58:14;12.57;;;9.53;;
32639;SDS011;19049;52.524;11.468;2023-10-19T06:00:41;13.40;;;9.10;;
32639;SDS011;19049;52.524;11.468;2023-10-19T06:03:07;13.90;;;8.90;;
32639;SDS011;19049;52.524;11.468;2023-10-19T06:05:33;15.17;;;10.13;;
32639;SDS011;19049;52.524;11.468;2023-10-19T06:07:59;15.17;;;10.17;;
32639;SDS011;19049;52.524;11.468;2023-10-19T06:10:27;13.00;;;9.40;;
32639;SDS011;19049;52.524;11.468;2023-10-19T06:12:53;16.17;;;10.47;;
32639;SDS011;19049;52.524;11.468;2023-10-19T06:15:21;15.90;;;10.67;;
32639;SDS011;19049;52.524;11.468;2023-10-19T06:17:49;14.23;;;10.20;;
32639;SDS011;19049;52.524;11.468;2023-10-19T06:20:15;14.57;;;10.03;;
32639;SDS011;19049;52.524;11.468;2023-10-19T06:22:55;14.63;;;10.60;;
32639;SDS011;19049;52.524;11.468;2023-10-19T06:25:22;16.33;;;10.90;;
32639;SDS011;19049;52.524;11.468;2023-10-19T06:27:50;15.80;;;12.00;;
32639;SDS011;19049;52.524;11.468;2023-10-19T06:30:17;16.10;;;11.07;;
32639;SDS011;19049;52.524;11.468;2023-10-19T06:32:47;14.67;;;10.10;;
32639;SDS011;19049;52.524;11.468;2023-10-19T06:35:15;15.33;;;9.27;;
32639;SDS011;19049;52.524;11.468;2023-10-19T06:37:42;14.10;;;10.67;;
32639;SDS011;19049;52.524;11.468;2023-10-19T06:40:08;13.70;;;10.17;;
32639;SDS011;19049;52.524;11.468;2023-10-19T06:42:36;14.37;;;10.53;;
32639;SDS011;19049;52.524;11.468;2023-10-19T06:45:02;14.23;;;10.87;;
32639;SDS011;19049;52.524;11.468;2023-10-19T06:47:28;18.00;;;13.03;;
32639;SDS011;19049;52.524;11.468;2023-10-19T06:49:55;17.30;;;12.67;;
32639;SDS011;19049;52.524;11.468;2023-10-19T06:52:21;16.70;;;11.03;;
32639;SDS011;19049;52.524;11.468;2023-10-19T06:54:48;17.17;;;12.10;;
32639;SDS011;19049;52.524;11.468;2023-10-19T06:57:14;14.97;;;10.60;;
32639;SDS011;19049;52.524;11.468;2023-10-19T06:59:39;14.73;;;10.83;;
32639;SDS011;19049;52.524;11.468;2023-10-19T07:02:06;15.23;;;10.83;;
32639;SDS011;19049;52.524;11.468;2023-10-19T07:04:33;22.80;;;13.63;;
32639;SDS011;19049;52.524;11.468;2023-10-19T07:06:59;19.00;;;12.67;;
32639;SDS011;19049;52.524;11.468;2023-10-19T07:09:25;16.53;;;10.40;;
32639;SDS011;19049;52.524;11.468;2023-10-19T07:11:51;15.53;;;10.83;;
32639;SDS011;19049;52.524;11.468;2023-10-19T07:14:19;16.90;;;11.77;;
32639;SDS011;19049;52.524;11.468;2023-10-19T07:16:47;15.87;;;11.93;;
32639;SDS011;19049;52.524;11.468;2023-10-19T07:19:13;18.97;;;12.00;;
32639;SDS011;19049;52.524;11.468;2023-10-19T07:21:39;18.80;;;12.53;;
32639;SDS011;19049;52.524;11.468;2023-10-19T07:24:08;17.30;;;12.10;;
32639;SDS011;19049;52.524;11.468;2023-10-19T07:26:36;14.97;;;11.60;;
32639;SDS011;19049;52.524;11.468;2023-10-19T07:29:16;16.90;;;10.90;;
32639;SDS011;19049;52.524;11.468;2023-10-19T07:31:44;17.77;;;12.20;;
32639;SDS011;19049;52.524;11.468;2023-10-19T07:34:10;17.93;;;12.70;;
32639;SDS011;19049;52.524;11.468;2023-10-19T07:36:40;19.13;;;13.30;;
32639;SDS011;19049;52.524;11.468;2023-10-19T07:39:07;16.87;;;11.70;;
32639;SDS011;19049;52.524;11.468;2023-10-19T07:41:39;16.23;;;11.83;;
32639;SDS011;19049;52.524;11.468;2023-10-19T07:44:05;17.83;;;11.77;;
32639;SDS011;19049;52.524;11.468;2023-10-19T07:46:31;15.70;;;10.67;;
32639;SDS011;19049;52.524;11.468;2023-10-19T07:48:57;14.60;;;10.50;;
32639;SDS011;19049;52.524;11.468;2023-10-19T07:51:25;14.20;;;10.70;;
32639;SDS011;19049;52.524;11.468;2023-10-19T07:53:51;15.20;;;10.80;;
32639;SDS011;19049;52.524;11.468;2023-10-19T07:56:18;14.50;;;10.50;;
32639;SDS011;19049;52.524;11.468;2023-10-19T07:58:44;12.37;;;9.27;;
32639;SDS011;19049;52.524;11.468;2023-10-19T08:01:11;12.83;;;9.70;;
32639;SDS011;19049;52.524;11.468;2023-10-19T08:03:37;14.07;;;10.30;;
32639;SDS011;19049;52.524;11.468;2023-10-19T08:06:03;18.17;;;11.37;;
32639;SDS011;19049;52.524;11.468;2023-10-19T08:08:29;15.03;;;11.33;;
32639;SDS011;19049;52.524;11.468;2023-10-19T08:10:59;16.17;;;10.67;;
32639;SDS011;19049;52.524;11.468;2023-10-19T08:13:25;18.90;;;13.17;;
32639;SDS011;19049;52.524;11.468;2023-10-19T08:15:52;15.60;;;11.17;;
32639;SDS011;19049;52.524;11.468;2023-10-19T08:18:18;15.50;;;11.47;;
32639;SDS011;19049;52.524;11.468;2023-10-19T08:20:45;14.03;;;10.60;;
32639;SDS011;19049;52.524;11.468;2023-10-19T08:23:11;19.43;;;14.20;;
32639;SDS011;19049;52.524;11.468;2023-10-19T08:25:41;20.53;;;15.00;;
32639;SDS011;19049;52.524;11.468;2023-10-19T08:28:09;19.83;;;14.30;;
32639;SDS011;19049;52.524;11.468;2023-10-19T08:30:36;22.27;;;15.63;;
32639;SDS011;19049;52.524;11.468;2023-10-19T08:33:02;20.40;;;16.03;;
32639;SDS011;19049;52.524;11.468;2023-10-19T08:35:28;20.03;;;14.07;;
32639;SDS011;19049;52.524;11.468;2023-10-19T08:37:56;20.20;;;14.93;;
32639;SDS011;19049;52.524;11.468;2023-10-19T08:40:26;18.97;;;13.13;;
32639;SDS011;19049;52.524;11.468;2023-10-19T08:42:52;16.50;;;12.23;;
32639;SDS011;19049;52.524;11.468;2023-10-19T08:45:19;22.97;;;16.47;;
32639;SDS011;19049;52.524;11.468;2023-10-19T08:47:53;24.23;;;17.73;;
32639;SDS011;19049;52.524;11.468;2023-10-19T08:50:27;19.40;;;13.37;;
32639;SDS011;19049;52.524;11.468;2023-10-19T08:52:54;23.10;;;15.73;;
32639;SDS011;19049;52.524;11.468;2023-10-19T08:55:21;20.57;;;14.80;;
32639;SDS011;19049;52.524;11.468;2023-10-19T08:57:50;20.80;;;14.67;;
32639;SDS011;19049;52.524;11.468;2023-10-19T09:00:17;21.37;;;14.83;;
32639;SDS011;19049;52.524;11.468;2023-10-19T09:02:47;21.20;;;14.17;;
32639;SDS011;19049;52.524;11.468;2023-10-19T09:05:13;19.33;;;14.97;;
32639;SDS011;19049;52.524;11.468;2023-10-19T09:07:48;23.77;;;16.70;;
32639;SDS011;19049;52.524;11.468;2023-10-19T09:10:21;22.37;;;15.97;;
32639;SDS011;19049;52.524;11.468;2023-10-19T09:13:06;20.10;;;14.97;;
32639;SDS011;19049;52.524;11.468;2023-10-19T09:15:37;22.27;;;16.03;;
32639;SDS011;19049;52.524;11.468;2023-10-19T09:20:49;21.73;;;15.07;;
32639;SDS011;19049;52.524;11.468;2023-10-19T09:23:21;20.40;;;14.83;;
32639;SDS011;19049;52.524;11.468;2023-10-19T09:25:51;19.87;;;14.50;;
32639;SDS011;19049;52.524;11.468;2023-10-19T09:28:21;20.03;;;13.97;;
32639;SDS011;19049;52.524;11.468;2023-10-19T09:30:48;23.87;;;17.27;;
32639;SDS011;19049;52.524;11.468;2023-10-19T09:33:15;21.10;;;14.60;;
32639;SDS011;19049;52.524;11.468;2023-10-19T09:35:43;22.60;;;17.37;;
32639;SDS011;19049;52.524;11.468;2023-10-19T09:38:13;21.80;;;15.33;;
32639;SDS011;19049;52.524;11.468;2023-10-19T09:40:39;30.17;;;21.17;;
32639;SDS011;19049;52.524;11.468;2023-10-19T09:43:07;25.53;;;18.43;;
32639;SDS011;19049;52.524;11.468;2023-10-19T09:45:39;22.03;;;16.17;;
32639;SDS011;19049;52.524;11.468;2023-10-19T09:48:09;23.83;;;15.80;;
32639;SDS011;19049;52.524;11.468;2023-10-19T09:50:41;21.50;;;15.17;;
32639;SDS011;19049;52.524;11.468;2023-10-19T09:53:09;24.03;;;17.53;;
32639;SDS011;19049;52.524;11.468;2023-10-19T09:55:38;20.33;;;15.30;;
32639;SDS011;19049;52.524;11.468;2023-10-19T09:58:15;25.47;;;17.83;;
32639;SDS011;19049;52.524;11.468;2023-10-19T10:00:45;23.07;;;16.63;;
32639;SDS011;19049;52.524;11.468;2023-10-19T10:06:07;23.83;;;17.73;;
32639;SDS011;19049;52.524;11.468;2023-10-19T10:08:33;29.13;;;20.57;;
32639;SDS011;19049;52.524;11.468;2023-10-19T10:13:57;26.90;;;18.90;;
32639;SDS011;19049;52.524;11.468;2023-10-19T10:16:26;24.77;;;17.23;;
32639;SDS011;19049;52.524;11.468;2023-10-19T10:18:54;21.93;;;16.23;;
32639;SDS011;19049;52.524;11.468;2023-10-19T10:21:24;25.70;;;17.60;;
32639;SDS011;19049;52.524;11.468;2023-10-19T10:26:18;23.40;;;16.43;;
32639;SDS011;19049;52.524;11.468;2023-10-19T10:31:43;24.73;;;18.00;;
32639;SDS011;19049;52.524;11.468;2023-10-19T10:34:11;25.60;;;17.50;;
32639;SDS011;19049;52.524;11.468;2023-10-19T10:37:00;30.77;;;20.00;;
32639;SDS011;19049;52.524;11.468;2023-10-19T10:39:27;24.80;;;18.23;;
32639;SDS011;19049;52.524;11.468;2023-10-19T10:41:55;30.67;;;20.23;;
32639;SDS011;19049;52.524;11.468;2023-10-19T10:47:19;29.13;;;19.37;;
32639;SDS011;19049;52.524;11.468;2023-10-19T10:49:58;25.93;;;18.80;;
32639;SDS011;19049;52.524;11.468;2023-10-19T10:54:51;24.13;;;16.77;;
32639;SDS011;19049;52.524;11.468;2023-10-19T10:57:18;27.43;;;18.87;;
32639;SDS011;19049;52.524;11.468;2023-10-19T10:59:45;26.97;;;19.63;;
32639;SDS011;19049;52.524;11.468;2023-10-19T11:02:20;30.30;;;19.43;;
32639;SDS011;19049;52.524;11.468;2023-10-19T11:04:47;27.00;;;17.20;;
32639;SDS011;19049;52.524;11.468;2023-10-19T11:07:19;25.17;;;16.77;;
32639;SDS011;19049;52.524;11.468;2023-10-19T11:09:46;28.90;;;19.57;;
32639;SDS011;19049;52.524;11.468;2023-10-19T11:12:12;28.17;;;19.30;;
32639;SDS011;19049;52.524;11.468;2023-10-19T11:14:56;27.97;;;18.70;;
32639;SDS011;19049;52.524;11.468;2023-10-19T11:17:24;29.07;;;18.30;;
32639;SDS011;19049;52.524;11.468;2023-10-19T11:19:55;27.90;;;18.23;;
32639;SDS011;19049;52.524;11.468;2023-10-19T11:22:25;25.17;;;17.80;;
32639;SDS011;19049;52.524;11.468;2023-10-19T11:24:54;23.93;;;16.97;;
32639;SDS011;19049;52.524;11.468;2023-10-19T11:27:24;24.87;;;18.03;;
32639;SDS011;19049;52.524;11.468;2023-10-19T11:29:57;28.90;;;19.60;;
32639;SDS011;19049;52.524;11.468;2023-10-19T11:32:24;28.17;;;18.87;;
32639;SDS011;19049;52.524;11.468;2023-10-19T11:34:54;26.83;;;18.17;;
32639;SDS011;19049;52.524;11.468;2023-10-19T11:37:21;31.03;;;21.10;;
32639;SDS011;19049;52.524;11.468;2023-10-19T11:39:47;30.30;;;21.17;;
32639;SDS011;19049;52.524;11.468;2023-10-19T11:42:15;25.50;;;17.43;;
32639;SDS011;19049;52.524;11.468;2023-10-19T11:44:43;24.97;;;17.00;;
32639;SDS011;19049;52.524;11.468;2023-10-19T11:47:09;26.77;;;19.13;;
32639;SDS011;19049;52.524;11.468;2023-10-19T11:49:35;25.93;;;17.73;;
32639;SDS011;19049;52.524;11.468;2023-10-19T11:52:04;26.83;;;18.23;;
32639;SDS011;19049;52.524;11.468;2023-10-19T11:54:33;23.77;;;16.63;;
32639;SDS011;19049;52.524;11.468;2023-10-19T11:56:59;23.37;;;16.97;;
32639;SDS011;19049;52.524;11.468;2023-10-19T11:59:25;23.57;;;16.03;;
32639;SDS011;19049;52.524;11.468;2023-10-19T12:01:51;23.33;;;15.33;;
32639;SDS011;19049;52.524;11.468;2023-10-19T12:04:17;22.37;;;15.73;;
32639;SDS011;19049;52.524;11.468;2023-10-19T12:06:44;23.77;;;14.13;;
32639;SDS011;19049;52.524;11.468;2023-10-19T12:09:13;22.20;;;15.30;;
32639;SDS011;19049;52.524;11.468;2023-10-19T12:11:40;20.70;;;13.70;;
32639;SDS011;19049;52.524;11.468;2023-10-19T12:14:06;17.57;;;12.43;;
32639;SDS011;19049;52.524;11.468;2023-10-19T12:16:37;21.50;;;14.60;;
32639;SDS011;19049;52.524;11.468;2023-10-19T12:19:04;20.23;;;14.60;;
32639;SDS011;19049;52.524;11.468;2023-10-19T12:21:30;26.37;;;17.60;;
32639;SDS011;19049;52.524;11.468;2023-10-19T12:23:56;24.37;;;16.80;;
32639;SDS011;19049;52.524;11.468;2023-10-19T12:26:24;21.70;;;15.60;;
32639;SDS011;19049;52.524;11.468;2023-10-19T12:28:50;21.50;;;15.07;;
32639;SDS011;19049;52.524;11.468;2023-10-19T12:31:16;22.03;;;14.87;;
32639;SDS011;19049;52.524;11.468;2023-10-19T12:33:47;17.10;;;13.10;;
32639;SDS011;19049;52.524;11.468;2023-10-19T12:36:13;20.83;;;14.33;;
32639;SDS011;19049;52.524;11.468;2023-10-19T12:38:47;17.03;;;12.17;;
32639;SDS011;19049;52.524;11.468;2023-10-19T12:41:14;17.63;;;13.13;;
32639;SDS011;19049;52.524;11.468;2023-10-19T12:43:40;19.17;;;13.07;;
32639;SDS011;19049;52.524;11.468;2023-10-19T12:46:06;16.27;;;12.43;;
32639;SDS011;19049;52.524;11.468;2023-10-19T12:48:33;20.50;;;14.80;;
32639;SDS011;19049;52.524;11.468;2023-10-19T12:51:00;20.27;;;14.30;;
32639;SDS011;19049;52.524;11.468;2023-10-19T12:53:31;19.43;;;13.23;;
32639;SDS011;19049;52.524;11.468;2023-10-19T12:55:58;19.67;;;13.73;;
32639;SDS011;19049;52.524;11.468;2023-10-19T12:58:24;18.33;;;12.40;;
32639;SDS011;19049;52.524;11.468;2023-10-19T13:00:52;17.17;;;12.00;;
32639;SDS011;19049;52.524;11.468;2023-10-19T13:03:20;16.13;;;11.37;;
32639;SDS011;19049;52.524;11.468;2023-10-19T13:05:47;15.10;;;11.03;;
32639;SDS011;19049;52.524;11.468;2023-10-19T13:08:14;15.57;;;11.03;;
32639;SDS011;19049;52.524;11.468;2023-10-19T13:10:44;17.57;;;12.37;;
32639;SDS011;19049;52.524;11.468;2023-10-19T13:13:14;15.93;;;11.17;;
32639;SDS011;19049;52.524;11.468;2023-10-19T13:15:45;16.47;;;11.33;;
32639;SDS011;19049;52.524;11.468;2023-10-19T13:18:13;12.27;;;9.23;;
32639;SDS011;19049;52.524;11.468;2023-10-19T13:20:44;16.37;;;11.60;;
32639;SDS011;19049;52.524;11.468;2023-10-19T13:23:11;16.83;;;12.50;;
32639;SDS011;19049;52.524;11.468;2023-10-19T13:25:37;18.17;;;13.00;;
32639;SDS011;19049;52.524;11.468;2023-10-19T13:28:12;19.30;;;13.27;;
32639;SDS011;19049;52.524;11.468;2023-10-19T13:30:39;20.87;;;13.40;;
32639;SDS011;19049;52.524;11.468;2023-10-19T13:33:07;15.77;;;11.50;;
32639;SDS011;19049;52.524;11.468;2023-10-19T13:35:39;18.30;;;13.33;;
32639;SDS011;19049;52.524;11.468;2023-10-19T13:38:06;13.63;;;10.73;;
32639;SDS011;19049;52.524;11.468;2023-10-19T13:40:36;15.03;;;11.37;;
32639;SDS011;19049;52.524;11.468;2023-10-19T13:43:03;15.13;;;11.07;;
32639;SDS011;19049;52.524;11.468;2023-10-19T13:45:31;17.50;;;12.90;;
32639;SDS011;19049;52.524;11.468;2023-10-19T13:47:58;15.77;;;12.40;;
32639;SDS011;19049;52.524;11.468;2023-10-19T13:50:24;18.00;;;13.00;;
32639;SDS011;19049;52.524;11.468;2023-10-19T13:52:51;20.97;;;14.70;;
32639;SDS011;19049;52.524;11.468;2023-10-19T13:55:21;17.90;;;13.57;;
32639;SDS011;19049;52.524;11.468;2023-10-19T13:57:48;20.10;;;14.27;;
32639;SDS011;19049;52.524;11.468;2023-10-19T14:00:15;21.23;;;15.00;;
32639;SDS011;19049;52.524;11.468;2023-10-19T14:02:47;23.77;;;15.13;;
32639;SDS011;19049;52.524;11.468;2023-10-19T14:05:14;21.13;;;16.00;;
32639;SDS011;19049;52.524;11.468;2023-10-19T14:07:40;19.60;;;14.20;;
32639;SDS011;19049;52.524;11.468;2023-10-19T14:10:09;19.17;;;12.77;;
32639;SDS011;19049;52.524;11.468;2023-10-19T14:12:38;19.50;;;14.17;;
32639;SDS011;19049;52.524;11.468;2023-10-19T14:15:17;21.30;;;14.60;;
32639;SDS011;19049;52.524;11.468;2023-10-19T14:17:44;19.07;;;13.57;;
32639;SDS011;19049;52.524;11.468;2023-10-19T14:20:12;20.47;;;14.23;;
32639;SDS011;19049;52.524;11.468;2023-10-19T14:22:43;17.50;;;12.77;;
32639;SDS011;19049;52.524;11.468;2023-10-19T14:25:12;17.10;;;11.93;;
32639;SDS011;19049;52.524;11.468;2023-10-19T14:27:42;22.17;;;14.10;;
32639;SDS011;19049;52.524;11.468;2023-10-19T14:30:10;25.57;;;15.37;;
32639;SDS011;19049;52.524;11.468;2023-10-19T14:32:40;25.37;;;14.30;;
32639;SDS011;19049;52.524;11.468;2023-10-19T14:35:09;24.17;;;16.07;;
32639;SDS011;19049;52.524;11.468;2023-10-19T14:37:40;24.03;;;14.70;;
32639;SDS011;19049;52.524;11.468;2023-10-19T14:42:35;18.87;;;13.07;;
32639;SDS011;19049;52.524;11.468;2023-10-19T14:45:08;24.80;;;15.77;;
32639;SDS011;19049;52.524;11.468;2023-10-19T14:47:37;20.20;;;13.27;;